Time;durP1;ratioP1;P1;durP2;ratioP2;P2;SDS_P1;SDS_P2;PMS_P1;PMS_P2;Temp;Humidity;BMP_temperature;BMP_pressure;BME280_temperature;BME280_humidity;BME280_pressure;Samples;Min_cycle;Max_cycle;Signal;HPM_P1;HPM_P2
2021/01/06 00:00:56;;;;;;;;;;;7.90;69.40;;;;;;2133174;27;19930;-74
2021/01/06 00:01:57;;;;;;;;;;;7.80;70.50;;;;;;2132375;27;19923;-73
2021/01/06 00:02:59;;;;;;;;;;;7.70;70.90;;;;;;2132613;27;19923;-73
2021/01/06 00:04:00;;;;;;;;;;;7.90;70.90;;;;;;2132441;27;19934;-73
2021/01/06 00:05:03;;;;;;;;;;;8.00;71.00;;;;;;2132822;27;19923;-73
2021/01/06 00:06:05;;;;;;;;;;;8.20;71.40;;;;;;2132878;27;19924;-73
2021/01/06 00:07:07;;;;;;;;;;;8.30;71.20;;;;;;2132689;27;20395;-73
2021/01/06 00:08:09;;;;;;;;;;;8.30;70.00;;;;;;2123285;27;20021;-74
2021/01/06 00:09:10;;;;;;;;;;;8.30;69.00;;;;;;2123157;28;20177;-73
2021/01/06 00:10:13;;;;;;;;;;;8.30;68.50;;;;;;2122731;28;19965;-73
2021/01/06 00:11:17;;;;;;;;;;;8.20;69.10;;;;;;2122804;28;20279;-73
2021/01/06 00:12:19;;;;;;;;;;;8.30;69.90;;;;;;2122273;27;20395;-73
2021/01/06 00:13:21;;;;;;;;;;;8.40;69.10;;;;;;2122067;28;19927;-73
2021/01/06 00:14:22;;;;;;;;;;;8.40;68.50;;;;;;2122082;28;19924;-73
2021/01/06 00:15:25;;;;;;;;;;;8.50;69.40;;;;;;2122235;28;20411;-73
2021/01/06 00:16:26;;;;;;;;;;;8.50;69.00;;;;;;2129978;27;19931;-74
2021/01/06 00:17:27;;;;;;;;;;;8.50;68.10;;;;;;2131168;27;19930;-74
2021/01/06 00:18:29;;;;;;;;;;;8.50;67.50;;;;;;2130913;27;19924;-73
2021/01/06 00:19:30;;;;;;;;;;;8.60;68.80;;;;;;2131783;27;20001;-73
2021/01/06 00:20:32;;;;;;;;;;;8.70;68.10;;;;;;2132021;27;20004;-73
2021/01/06 00:21:36;;;;;;;;;;;8.70;68.10;;;;;;2131765;27;19930;-73
2021/01/06 00:22:38;;;;;;;;;;;8.60;67.50;;;;;;2131303;27;19923;-74
2021/01/06 00:23:39;;;;;;;;;;;8.60;68.50;;;;;;2131590;27;19923;-73
2021/01/06 00:24:41;;;;;;;;;;;8.80;67.20;;;;;;2131585;27;19923;-75
2021/01/06 00:25:43;;;;;;;;;;;8.70;66.70;;;;;;2130934;27;19924;-72
2021/01/06 00:26:44;;;;;;;;;;;8.60;67.10;;;;;;2130417;27;19924;-75
2021/01/06 00:27:46;;;;;;;;;;;8.60;67.90;;;;;;2129927;27;19961;-73
2021/01/06 00:28:48;;;;;;;;;;;8.50;67.40;;;;;;2129944;27;19923;-73
2021/01/06 00:29:49;;;;;;;;;;;8.40;68.00;;;;;;2130458;27;19924;-73
2021/01/06 00:30:51;;;;;;;;;;;8.40;68.50;;;;;;2130399;27;19974;-73
2021/01/06 00:31:53;;;;;;;;;;;8.40;68.00;;;;;;2130549;27;19923;-74
2021/01/06 00:32:55;;;;;;;;;;;8.40;69.10;;;;;;2130419;27;19924;-73
2021/01/06 00:33:56;;;;;;;;;;;8.50;68.10;;;;;;2129830;27;19930;-74
2021/01/06 00:34:58;;;;;;;;;;;8.60;67.80;;;;;;2130038;27;20012;-73
2021/01/06 00:36:00;;;;;;;;;;;8.30;68.40;;;;;;2130638;27;19931;-74
2021/01/06 00:37:01;;;;;;;;;;;8.40;69.60;;;;;;2129873;27;20105;-74
2021/01/06 00:38:03;;;;;;;;;;;8.40;68.20;;;;;;2129853;27;20371;-74
2021/01/06 00:39:05;;;;;;;;;;;8.40;68.50;;;;;;2130411;27;19923;-74
2021/01/06 00:40:07;;;;;;;;;;;8.40;68.20;;;;;;2130662;27;19930;-74
2021/01/06 00:41:09;;;;;;;;;;;8.10;69.40;;;;;;2130628;27;19929;-74
2021/01/06 00:42:10;;;;;;;;;;;8.10;68.70;;;;;;2130401;27;20305;-74
2021/01/06 00:43:12;;;;;;;;;;;8.00;69.40;;;;;;2130517;27;19927;-73
2021/01/06 00:44:15;;;;;;;;;;;8.00;70.00;;;;;;2130608;27;19923;-73
2021/01/06 00:45:16;;;;;;;;;;;8.00;71.00;;;;;;2130489;27;19923;-73
2021/01/06 00:46:18;;;;;;;;;;;8.00;69.50;;;;;;2130604;27;20310;-73
2021/01/06 00:47:19;;;;;;;;;;;8.10;69.40;;;;;;2130699;27;20027;-74
2021/01/06 00:48:20;;;;;;;;;;;8.10;69.10;;;;;;2130692;27;19946;-75
2021/01/06 00:49:22;;;;;;;;;;;7.50;70.40;;;;;;2130878;27;19970;-74
2021/01/06 00:50:25;;;;;;;;;;;7.50;71.70;;;;;;2130680;27;19927;-73
2021/01/06 00:51:27;;;;;;;;;;;7.50;72.00;;;;;;2130737;27;19923;-73
2021/01/06 00:52:28;;;;;;;;;;;7.50;73.40;;;;;;2130705;27;19931;-74
2021/01/06 00:53:29;;;;;;;;;;;7.40;72.70;;;;;;2130870;27;20477;-73
2021/01/06 00:54:34;;;;;;;;;;;7.40;72.50;;;;;;2131328;27;19930;-73
2021/01/06 00:55:35;;;;;;;;;;;7.50;73.40;;;;;;2131570;27;19930;-73
2021/01/06 00:56:37;;;;;;;;;;;7.50;72.60;;;;;;2130969;27;19997;-73
2021/01/06 00:57:39;;;;;;;;;;;7.40;72.90;;;;;;2130442;27;19923;-74
2021/01/06 00:58:40;;;;;;;;;;;7.40;72.90;;;;;;2130545;27;19923;-74
2021/01/06 00:59:42;;;;;;;;;;;7.50;73.70;;;;;;2131398;27;19966;-75
2021/01/06 01:00:44;;;;;;;;;;;7.30;73.10;;;;;;2131529;27;19923;-73
2021/01/06 01:01:45;;;;;;;;;;;7.40;73.70;;;;;;2132498;27;19923;-73
2021/01/06 01:02:50;;;;;;;;;;;7.40;73.50;;;;;;2131589;27;19930;-73
2021/01/06 01:03:53;;;;;;;;;;;7.50;74.10;;;;;;2131029;27;19923;-73
2021/01/06 01:04:54;;;;;;;;;;;7.50;73.60;;;;;;2130736;27;19924;-74
2021/01/06 01:05:57;;;;;;;;;;;7.50;73.50;;;;;;2130277;27;19924;-73
2021/01/06 01:06:59;;;;;;;;;;;7.50;73.10;;;;;;2130216;27;20303;-73
2021/01/06 01:08:01;;;;;;;;;;;7.60;73.40;;;;;;2124224;27;19950;-73
2021/01/06 01:09:03;;;;;;;;;;;7.50;72.90;;;;;;2117811;28;20384;-74
2021/01/06 01:10:05;;;;;;;;;;;7.60;72.70;;;;;;2117765;28;19924;-74
2021/01/06 01:11:07;;;;;;;;;;;7.50;72.70;;;;;;2117671;28;20014;-73
2021/01/06 01:12:09;;;;;;;;;;;7.50;74.50;;;;;;2118355;28;19930;-73
2021/01/06 01:13:12;;;;;;;;;;;7.60;72.90;;;;;;2117841;28;19930;-73
2021/01/06 01:14:13;;;;;;;;;;;7.50;72.90;;;;;;2118260;28;19931;-74
2021/01/06 01:15:15;;;;;;;;;;;7.40;73.30;;;;;;2118429;28;19935;-73
2021/01/06 01:16:17;;;;;;;;;;;7.40;73.90;;;;;;2118486;28;19923;-73
2021/01/06 01:17:19;;;;;;;;;;;7.40;74.30;;;;;;2117743;28;19924;-73
2021/01/06 01:18:21;;;;;;;;;;;7.40;74.10;;;;;;2118044;28;19931;-73
2021/01/06 01:19:22;;;;;;;;;;;7.60;74.70;;;;;;2116889;28;19934;-73
2021/01/06 01:20:24;;;;;;;;;;;7.80;73.80;;;;;;2117775;28;19943;-73
2021/01/06 01:21:31;;;;;;;;;;;8.00;73.50;;;;;;2118688;28;20339;-74
2021/01/06 01:22:32;;;;;;;;;;;8.00;72.70;;;;;;2119374;28;19924;-74
2021/01/06 01:23:34;;;;;;;;;;;7.90;71.50;;;;;;2119193;28;19931;-74
2021/01/06 01:24:35;;;;;;;;;;;7.90;73.20;;;;;;2118933;28;19924;-74
2021/01/06 01:25:36;;;;;;;;;;;8.00;73.30;;;;;;2118637;28;19924;-75
2021/01/06 01:26:39;;;;;;;;;;;7.90;71.90;;;;;;2118267;28;19971;-73
2021/01/06 01:27:41;;;;;;;;;;;8.10;73.40;;;;;;2118738;28;19923;-74
2021/01/06 01:28:42;;;;;;;;;;;8.20;71.10;;;;;;2118603;28;19924;-73
2021/01/06 01:29:43;;;;;;;;;;;8.10;70.50;;;;;;2118314;28;20253;-73
2021/01/06 01:30:46;;;;;;;;;;;8.00;70.50;;;;;;2117054;28;19924;-74
2021/01/06 01:31:47;;;;;;;;;;;8.00;71.50;;;;;;2117422;28;19931;-74
2021/01/06 01:32:49;;;;;;;;;;;8.10;70.80;;;;;;2117138;28;19924;-73
2021/01/06 01:33:51;;;;;;;;;;;8.10;71.80;;;;;;2117137;28;19934;-73
2021/01/06 01:34:52;;;;;;;;;;;8.20;71.90;;;;;;2117173;28;19930;-73
2021/01/06 01:35:54;;;;;;;;;;;8.30;71.20;;;;;;2116125;28;19943;-73
2021/01/06 01:36:55;;;;;;;;;;;8.30;69.70;;;;;;2115901;28;19931;-73
2021/01/06 01:37:57;;;;;;;;;;;8.30;69.40;;;;;;2115845;28;19930;-73
2021/01/06 01:38:59;;;;;;;;;;;8.10;71.40;;;;;;2115835;28;20319;-73
2021/01/06 01:40:00;;;;;;;;;;;8.30;71.70;;;;;;2115731;28;20356;-73
2021/01/06 01:41:06;;;;;;;;;;;8.40;69.60;;;;;;2115768;28;19967;-73
2021/01/06 01:42:07;;;;;;;;;;;8.40;69.60;;;;;;2114951;28;19924;-73
2021/01/06 01:43:15;;;;;;;;;;;8.40;69.00;;;;;;2115092;28;20411;-73
2021/01/06 01:44:16;;;;;;;;;;;8.30;69.10;;;;;;2115395;28;19924;-74
2021/01/06 01:45:18;;;;;;;;;;;8.40;70.00;;;;;;2115665;28;19935;-74
2021/01/06 01:46:34;;;;;;;;;;;8.40;69.60;;;;;;2115546;28;19931;-73
2021/01/06 01:47:38;;;;;;;;;;;8.50;70.20;;;;;;2115221;28;19935;-72
2021/01/06 01:48:42;;;;;;;;;;;8.70;68.70;;;;;;2107106;28;19924;-75
2021/01/06 01:49:45;;;;;;;;;;;8.70;69.40;;;;;;2115429;28;19958;-73
2021/01/06 01:50:46;;;;;;;;;;;8.80;68.20;;;;;;2115762;28;19952;-74
2021/01/06 01:51:51;;;;;;;;;;;8.80;67.90;;;;;;2115316;28;20292;-73
2021/01/06 01:52:55;;;;;;;;;;;8.70;67.20;;;;;;2114768;28;20435;-73
2021/01/06 01:54:03;;;;;;;;;;;8.60;67.60;;;;;;2114834;28;20292;-73
2021/01/06 01:55:07;;;;;;;;;;;8.70;67.90;;;;;;2115521;28;20200;-73
2021/01/06 01:56:11;;;;;;;;;;;8.70;68.50;;;;;;2115555;28;20356;-73
2021/01/06 01:57:16;;;;;;;;;;;8.80;67.70;;;;;;2114682;28;20300;-73
2021/01/06 01:58:21;;;;;;;;;;;8.80;67.70;;;;;;2115415;28;20261;-73
2021/01/06 01:59:26;;;;;;;;;;;8.70;66.60;;;;;;2115195;28;19938;-73
2021/01/06 02:00:29;;;;;;;;;;;8.60;67.20;;;;;;2115347;28;19923;-73
2021/01/06 02:01:32;;;;;;;;;;;8.60;68.00;;;;;;2115305;28;19930;-73
2021/01/06 02:02:36;;;;;;;;;;;8.60;67.60;;;;;;2114709;28;19928;-73
2021/01/06 02:03:41;;;;;;;;;;;8.60;69.10;;;;;;2114709;28;19924;-73
2021/01/06 02:04:46;;;;;;;;;;;8.70;67.80;;;;;;2115434;28;19931;-73
2021/01/06 02:05:50;;;;;;;;;;;8.60;67.40;;;;;;2115448;28;19924;-73
2021/01/06 02:06:54;;;;;;;;;;;8.60;68.00;;;;;;2115380;28;19924;-73
2021/01/06 02:07:58;;;;;;;;;;;8.60;67.60;;;;;;2114670;28;19935;-73
2021/01/06 02:09:01;;;;;;;;;;;8.60;68.50;;;;;;2114718;28;20392;-72
2021/01/06 02:10:07;;;;;;;;;;;8.50;68.10;;;;;;2115305;28;19934;-72
2021/01/06 02:11:11;;;;;;;;;;;8.50;68.90;;;;;;2115173;28;19924;-73
2021/01/06 02:12:14;;;;;;;;;;;8.60;68.50;;;;;;2115458;27;19966;-73
2021/01/06 02:13:20;;;;;;;;;;;8.70;68.20;;;;;;2115260;28;19927;-73
2021/01/06 02:14:27;;;;;;;;;;;8.70;67.90;;;;;;2115168;28;20292;-73
2021/01/06 02:15:32;;;;;;;;;;;8.90;67.80;;;;;;2114512;28;19924;-73
2021/01/06 02:16:38;;;;;;;;;;;8.90;66.70;;;;;;2114717;28;19928;-73
2021/01/06 02:17:39;;;;;;;;;;;8.90;67.20;;;;;;2114535;28;19931;-73
2021/01/06 02:18:41;;;;;;;;;;;9.00;68.30;;;;;;2115312;28;19923;-73
2021/01/06 02:19:43;;;;;;;;;;;9.00;66.70;;;;;;2115144;28;19966;-73
2021/01/06 02:21:00;;;;;;;;;;;9.20;67.00;;;;;;2114307;28;19975;-74
2021/01/06 02:22:03;;;;;;;;;;;9.30;65.60;;;;;;2115294;28;19924;-74
2021/01/06 02:23:05;;;;;;;;;;;9.30;66.60;;;;;;2115124;28;20408;-73
2021/01/06 02:24:07;;;;;;;;;;;9.20;64.30;;;;;;2115164;28;19928;-74
2021/01/06 02:25:08;;;;;;;;;;;9.20;65.40;;;;;;2114555;28;19923;-74
2021/01/06 02:26:10;;;;;;;;;;;9.30;66.40;;;;;;2114638;28;20083;-73
2021/01/06 02:27:11;;;;;;;;;;;9.50;65.50;;;;;;2115328;28;20010;-74
2021/01/06 02:28:13;;;;;;;;;;;9.60;66.00;;;;;;2115010;28;19935;-73
2021/01/06 02:29:15;;;;;;;;;;;9.70;63.30;;;;;;2114811;28;20384;-73
2021/01/06 02:30:17;;;;;;;;;;;9.60;64.50;;;;;;2115253;28;19935;-73
2021/01/06 02:31:18;;;;;;;;;;;9.70;64.80;;;;;;2115235;28;19923;-74
2021/01/06 02:32:20;;;;;;;;;;;9.80;64.50;;;;;;2117216;28;19931;-74
2021/01/06 02:33:22;;;;;;;;;;;9.70;62.60;;;;;;2117345;28;19935;-74
2021/01/06 02:34:24;;;;;;;;;;;9.60;63.50;;;;;;2117886;28;19923;-74
2021/01/06 02:35:25;;;;;;;;;;;9.60;63.20;;;;;;2118225;28;20406;-74
2021/01/06 02:36:27;;;;;;;;;;;9.40;64.70;;;;;;2118835;28;19928;-74
2021/01/06 02:37:29;;;;;;;;;;;9.40;64.60;;;;;;2119121;28;19924;-74
2021/01/06 02:38:31;;;;;;;;;;;9.50;64.10;;;;;;2119595;28;19923;-74
2021/01/06 02:39:32;;;;;;;;;;;9.50;64.50;;;;;;2119726;28;19931;-74
2021/01/06 02:40:34;;;;;;;;;;;9.30;63.30;;;;;;2119779;28;19924;-74
2021/01/06 02:41:35;;;;;;;;;;;9.20;65.60;;;;;;2119189;28;19935;-74
2021/01/06 02:42:37;;;;;;;;;;;9.30;65.20;;;;;;2118157;28;19923;-74
2021/01/06 02:43:39;;;;;;;;;;;9.30;64.70;;;;;;2118085;28;19924;-74
2021/01/06 02:44:40;;;;;;;;;;;9.30;64.30;;;;;;2116074;28;19923;-74
2021/01/06 02:45:41;;;;;;;;;;;9.30;65.60;;;;;;2116395;28;19931;-73
2021/01/06 02:46:43;;;;;;;;;;;9.30;65.00;;;;;;2115935;28;19924;-73
2021/01/06 02:47:47;;;;;;;;;;;9.30;64.70;;;;;;2115636;28;20372;-73
2021/01/06 02:48:49;;;;;;;;;;;9.40;64.40;;;;;;2116115;28;19931;-75
2021/01/06 02:49:51;;;;;;;;;;;9.30;63.80;;;;;;2116491;28;20356;-73
2021/01/06 02:50:54;;;;;;;;;;;9.20;64.40;;;;;;2116865;28;19931;-73
2021/01/06 02:52:00;;;;;;;;;;;9.40;65.90;;;;;;2116824;28;19938;-73
2021/01/06 02:53:03;;;;;;;;;;;9.40;65.40;;;;;;2116618;28;19924;-73
2021/01/06 02:54:06;;;;;;;;;;;9.60;64.40;;;;;;2116007;28;19932;-73
2021/01/06 02:55:12;;;;;;;;;;;9.50;64.10;;;;;;2116563;28;19924;-73
2021/01/06 02:56:14;;;;;;;;;;;9.40;65.10;;;;;;2116285;28;19930;-73
2021/01/06 02:57:16;;;;;;;;;;;9.60;64.70;;;;;;2116543;28;19934;-73
2021/01/06 02:58:21;;;;;;;;;;;9.70;64.10;;;;;;2116592;28;19924;-73
2021/01/06 02:59:24;;;;;;;;;;;9.90;64.30;;;;;;2116497;28;19967;-73
2021/01/06 03:00:26;;;;;;;;;;;10.00;63.80;;;;;;2116823;28;19924;-73
2021/01/06 03:01:28;;;;;;;;;;;9.80;63.20;;;;;;2115218;28;19924;-73
2021/01/06 03:02:30;;;;;;;;;;;9.60;62.60;;;;;;2114888;28;19930;-73
2021/01/06 03:03:33;;;;;;;;;;;9.40;63.30;;;;;;2114976;28;19955;-73
2021/01/06 03:04:36;;;;;;;;;;;9.40;63.60;;;;;;2114994;28;20326;-74
2021/01/06 03:05:38;;;;;;;;;;;9.50;64.00;;;;;;2115103;28;19947;-73
2021/01/06 03:06:42;;;;;;;;;;;9.50;65.20;;;;;;2114919;28;20300;-73
2021/01/06 03:07:45;;;;;;;;;;;9.50;63.30;;;;;;2114245;28;19930;-73
2021/01/06 03:08:46;;;;;;;;;;;9.50;62.90;;;;;;2114309;28;19929;-73
2021/01/06 03:09:48;;;;;;;;;;;9.40;64.30;;;;;;2115009;28;19923;-73
2021/01/06 03:10:49;;;;;;;;;;;9.40;64.00;;;;;;2114891;28;19924;-73
2021/01/06 03:11:52;;;;;;;;;;;9.20;63.50;;;;;;2114117;28;19938;-73
2021/01/06 03:12:55;;;;;;;;;;;9.30;65.30;;;;;;2114397;28;19977;-73
2021/01/06 03:13:56;;;;;;;;;;;9.30;64.10;;;;;;2114372;28;19935;-73
2021/01/06 03:14:59;;;;;;;;;;;9.20;64.20;;;;;;2114300;28;20399;-73
2021/01/06 03:16:01;;;;;;;;;;;9.10;64.50;;;;;;2118804;27;19924;-73
2021/01/06 03:17:03;;;;;;;;;;;9.10;64.60;;;;;;2123268;27;19935;-73
2021/01/06 03:18:05;;;;;;;;;;;9.20;64.40;;;;;;2123419;27;20076;-73
2021/01/06 03:19:07;;;;;;;;;;;9.20;64.40;;;;;;2123354;27;19939;-73
2021/01/06 03:20:10;;;;;;;;;;;9.10;65.50;;;;;;2123590;27;20481;-73
2021/01/06 03:21:12;;;;;;;;;;;9.20;64.80;;;;;;2123292;27;19924;-72
2021/01/06 03:22:15;;;;;;;;;;;9.20;65.90;;;;;;2123406;27;20307;-73
2021/01/06 03:23:21;;;;;;;;;;;9.20;64.60;;;;;;2123372;27;19923;-73
2021/01/06 03:24:24;;;;;;;;;;;9.10;65.00;;;;;;2123469;27;19923;-72
2021/01/06 03:25:26;;;;;;;;;;;9.10;65.20;;;;;;2122732;27;19924;-73
2021/01/06 03:26:27;;;;;;;;;;;9.20;65.30;;;;;;2123279;27;19930;-72
2021/01/06 03:27:31;;;;;;;;;;;9.30;65.00;;;;;;2123350;27;19923;-73
2021/01/06 03:28:33;;;;;;;;;;;9.30;64.50;;;;;;2123267;27;20509;-73
2021/01/06 03:29:35;;;;;;;;;;;9.40;65.10;;;;;;2123451;27;19923;-73
2021/01/06 03:30:37;;;;;;;;;;;9.40;65.50;;;;;;2123290;27;20297;-73
2021/01/06 03:31:39;;;;;;;;;;;9.50;63.80;;;;;;2123222;27;19930;-73
2021/01/06 03:32:44;;;;;;;;;;;9.40;63.70;;;;;;2123295;27;20082;-73
2021/01/06 03:33:47;;;;;;;;;;;9.30;63.90;;;;;;2123339;27;19923;-73
2021/01/06 03:34:52;;;;;;;;;;;9.40;65.50;;;;;;2123294;27;20309;-73
2021/01/06 03:35:55;;;;;;;;;;;9.70;65.30;;;;;;2122735;27;19924;-73
2021/01/06 03:36:59;;;;;;;;;;;9.90;64.50;;;;;;2122942;27;20429;-73
2021/01/06 03:38:03;;;;;;;;;;;9.90;63.30;;;;;;2122315;27;20280;-73
2021/01/06 03:39:09;;;;;;;;;;;10.00;64.20;;;;;;2122749;27;19924;-73
2021/01/06 03:40:12;;;;;;;;;;;10.20;63.80;;;;;;2123385;27;19946;-73
2021/01/06 03:41:14;;;;;;;;;;;10.30;63.10;;;;;;2123449;27;19950;-73
2021/01/06 03:42:16;;;;;;;;;;;10.40;62.70;;;;;;2123569;27;19949;-73
2021/01/06 03:43:18;;;;;;;;;;;10.10;61.40;;;;;;2123473;27;19930;-73
2021/01/06 03:44:20;;;;;;;;;;;10.20;62.00;;;;;;2123484;27;19923;-73
2021/01/06 03:45:24;;;;;;;;;;;10.20;62.40;;;;;;2123581;27;19923;-73
2021/01/06 03:46:26;;;;;;;;;;;10.10;62.60;;;;;;2123193;27;19930;-73
2021/01/06 03:47:31;;;;;;;;;;;10.00;61.80;;;;;;2123238;27;19930;-73
2021/01/06 03:48:35;;;;;;;;;;;10.00;62.70;;;;;;2123239;27;20269;-73
2021/01/06 03:49:51;;;;;;;;;;;9.90;61.60;;;;;;2123410;27;19927;-73
2021/01/06 03:50:54;;;;;;;;;;;9.70;62.60;;;;;;2123238;27;19935;-72
2021/01/06 03:52:02;;;;;;;;;;;9.80;63.00;;;;;;2123383;27;20383;-73
2021/01/06 03:53:06;;;;;;;;;;;10.00;63.70;;;;;;2123323;27;20276;-73
2021/01/06 03:54:16;;;;;;;;;;;9.90;62.70;;;;;;2122915;27;19927;-74
2021/01/06 03:55:25;;;;;;;;;;;9.80;62.60;;;;;;2123443;27;20399;-74
2021/01/06 03:56:28;;;;;;;;;;;9.90;62.40;;;;;;2123443;28;19927;-74
2021/01/06 03:57:30;;;;;;;;;;;9.60;63.00;;;;;;2123029;27;19923;-72
2021/01/06 03:58:41;;;;;;;;;;;9.80;63.80;;;;;;2123769;27;19934;-73
2021/01/06 03:59:47;;;;;;;;;;;9.70;62.00;;;;;;2123699;28;19967;-73
2021/01/06 04:00:51;;;;;;;;;;;9.80;62.90;;;;;;2124011;27;19924;-73
2021/01/06 04:01:56;;;;;;;;;;;9.70;62.40;;;;;;2123859;28;19958;-73
2021/01/06 04:03:00;;;;;;;;;;;9.70;62.90;;;;;;2124461;28;19927;-72
2021/01/06 04:04:05;;;;;;;;;;;9.50;62.40;;;;;;2125791;27;19930;-73
2021/01/06 04:05:08;;;;;;;;;;;9.70;62.10;;;;;;2124667;28;19928;-73
2021/01/06 04:06:11;;;;;;;;;;;9.60;62.40;;;;;;2125524;28;19923;-74
2021/01/06 04:07:14;;;;;;;;;;;9.60;63.20;;;;;;2125415;27;19930;-72
2021/01/06 04:08:20;;;;;;;;;;;9.60;62.60;;;;;;2117449;28;19924;-72
2021/01/06 04:09:25;;;;;;;;;;;9.70;63.10;;;;;;2117308;28;19924;-73
2021/01/06 04:10:29;;;;;;;;;;;9.70;63.60;;;;;;2117853;28;19931;-73
2021/01/06 04:11:31;;;;;;;;;;;9.70;63.00;;;;;;2118178;28;20453;-73
2021/01/06 04:12:33;;;;;;;;;;;9.70;63.40;;;;;;2118726;28;20184;-73
2021/01/06 04:13:35;;;;;;;;;;;9.80;62.80;;;;;;2118114;28;20283;-74
2021/01/06 04:14:37;;;;;;;;;;;9.60;62.70;;;;;;2115953;28;19928;-73
2021/01/06 04:15:38;;;;;;;;;;;9.50;62.60;;;;;;2115631;28;20029;-73
2021/01/06 04:16:39;;;;;;;;;;;9.70;64.30;;;;;;2115787;28;20290;-73
2021/01/06 04:17:42;;;;;;;;;;;9.80;63.20;;;;;;2115866;28;19924;-73
2021/01/06 04:18:44;;;;;;;;;;;9.90;63.30;;;;;;2115441;28;19959;-73
2021/01/06 04:19:47;;;;;;;;;;;9.70;62.60;;;;;;2115110;28;20296;-73
2021/01/06 04:20:48;;;;;;;;;;;9.60;62.60;;;;;;2115479;28;19931;-73
2021/01/06 04:21:50;;;;;;;;;;;9.50;63.70;;;;;;2115217;28;20296;-73
2021/01/06 04:22:52;;;;;;;;;;;9.60;63.90;;;;;;2115435;28;19924;-73
2021/01/06 04:23:54;;;;;;;;;;;9.70;64.30;;;;;;2116955;28;19923;-73
2021/01/06 04:24:56;;;;;;;;;;;9.90;63.90;;;;;;2116926;28;19980;-73
2021/01/06 04:25:58;;;;;;;;;;;10.00;62.80;;;;;;2116830;28;19935;-73
2021/01/06 04:26:59;;;;;;;;;;;10.00;61.90;;;;;;2114002;28;20395;-74
2021/01/06 04:28:02;;;;;;;;;;;9.90;62.50;;;;;;2114006;28;19924;-73
2021/01/06 04:29:03;;;;;;;;;;;9.80;62.10;;;;;;2114410;28;19924;-74
2021/01/06 04:30:07;;;;;;;;;;;9.90;62.60;;;;;;2114431;28;20398;-73
2021/01/06 04:31:09;;;;;;;;;;;10.00;62.60;;;;;;2113897;28;19931;-73
2021/01/06 04:32:11;;;;;;;;;;;10.00;61.40;;;;;;2114105;28;19923;-73
2021/01/06 04:33:14;;;;;;;;;;;9.80;62.80;;;;;;2114280;28;19924;-74
2021/01/06 04:34:16;;;;;;;;;;;9.80;61.40;;;;;;2114438;28;19924;-73
2021/01/06 04:35:18;;;;;;;;;;;9.70;62.30;;;;;;2114419;28;19978;-73
2021/01/06 04:36:21;;;;;;;;;;;9.70;63.50;;;;;;2114668;28;19931;-73
2021/01/06 04:37:23;;;;;;;;;;;9.90;62.60;;;;;;2114220;28;20286;-73
2021/01/06 04:38:25;;;;;;;;;;;9.70;61.70;;;;;;2114341;28;19948;-73
2021/01/06 04:39:27;;;;;;;;;;;9.60;62.30;;;;;;2114485;28;20419;-73
2021/01/06 04:40:33;;;;;;;;;;;9.70;62.00;;;;;;2113955;28;20646;-74
2021/01/06 04:41:41;;;;;;;;;;;9.80;63.30;;;;;;2113836;28;19947;-73
2021/01/06 04:42:43;;;;;;;;;;;9.60;62.90;;;;;;2114454;28;19931;-73
2021/01/06 04:43:49;;;;;;;;;;;9.50;62.60;;;;;;2114564;28;19924;-73
2021/01/06 04:45:01;;;;;;;;;;;9.40;63.50;;;;;;2115379;28;20505;-73
2021/01/06 04:46:12;;;;;;;;;;;9.30;63.00;;;;;;2115496;28;19978;-73
2021/01/06 04:47:28;;;;;;;;;;;9.30;63.20;;;;;;2116043;28;19924;-73
2021/01/06 04:48:35;;;;;;;;;;;9.20;63.80;;;;;;2115960;28;19924;-73
2021/01/06 04:49:40;;;;;;;;;;;9.00;64.40;;;;;;2115966;28;19931;-73
2021/01/06 04:50:57;;;;;;;;;;;8.90;64.60;;;;;;2116122;28;19931;-73
2021/01/06 04:52:02;;;;;;;;;;;8.80;65.60;;;;;;2115910;28;19930;-74
2021/01/06 04:53:07;;;;;;;;;;;8.90;66.60;;;;;;2115739;28;20383;-73
2021/01/06 04:54:16;;;;;;;;;;;8.90;66.50;;;;;;2115957;28;20315;-73
2021/01/06 04:55:22;;;;;;;;;;;9.20;66.40;;;;;;2115661;28;20340;-73
2021/01/06 04:56:39;;;;;;;;;;;9.20;64.50;;;;;;2116030;28;19931;-73
2021/01/06 04:57:52;;;;;;;;;;;9.10;65.00;;;;;;2115505;28;20391;-73
2021/01/06 04:58:59;;;;;;;;;;;9.30;65.40;;;;;;2115824;28;19924;-73
2021/01/06 05:00:10;;;;;;;;;;;9.40;63.80;;;;;;2115524;28;19946;-73
2021/01/06 05:01:28;;;;;;;;;;;9.40;64.30;;;;;;2116050;28;19935;-73
2021/01/06 05:02:36;;;;;;;;;;;9.60;64.30;;;;;;2115832;28;19930;-73
2021/01/06 05:03:45;;;;;;;;;;;9.70;64.30;;;;;;2115719;28;20400;-73
2021/01/06 05:04:52;;;;;;;;;;;9.90;64.40;;;;;;2116061;28;19931;-73
2021/01/06 05:05:56;;;;;;;;;;;9.70;63.20;;;;;;2115864;28;19928;-73
2021/01/06 05:07:00;;;;;;;;;;;9.70;64.00;;;;;;2115685;28;19961;-73
2021/01/06 05:08:06;;;;;;;;;;;9.60;61.50;;;;;;2115789;28;20319;-73
2021/01/06 05:09:14;;;;;;;;;;;9.50;62.00;;;;;;2115909;28;19923;-72
2021/01/06 05:10:25;;;;;;;;;;;9.50;63.30;;;;;;2115680;28;19924;-73
2021/01/06 05:11:27;;;;;;;;;;;9.30;62.30;;;;;;2115637;28;19968;-74
2021/01/06 05:12:34;;;;;;;;;;;9.30;62.50;;;;;;2115034;28;19924;-73
2021/01/06 05:13:39;;;;;;;;;;;9.10;63.10;;;;;;2115326;28;19930;-75
2021/01/06 05:14:44;;;;;;;;;;;9.10;63.70;;;;;;2115682;28;19924;-73
2021/01/06 05:15:47;;;;;;;;;;;9.20;65.00;;;;;;2118186;27;19930;-73
2021/01/06 05:16:50;;;;;;;;;;;9.00;63.80;;;;;;2126621;27;19935;-73
2021/01/06 05:17:52;;;;;;;;;;;8.90;64.70;;;;;;2127543;27;20371;-74
2021/01/06 05:18:53;;;;;;;;;;;8.90;64.30;;;;;;2127684;27;19934;-73
2021/01/06 05:19:54;;;;;;;;;;;8.80;64.90;;;;;;2127553;27;19931;-74
2021/01/06 05:20:56;;;;;;;;;;;8.80;65.00;;;;;;2127869;27;19924;-74
2021/01/06 05:21:58;;;;;;;;;;;8.70;65.90;;;;;;2128326;27;19924;-73
2021/01/06 05:23:01;;;;;;;;;;;8.80;65.70;;;;;;2128307;27;19923;-74
2021/01/06 05:24:08;;;;;;;;;;;8.80;65.80;;;;;;2128262;27;19927;-74
2021/01/06 05:25:12;;;;;;;;;;;8.80;66.50;;;;;;2126390;27;19935;-73
2021/01/06 05:26:13;;;;;;;;;;;8.90;66.20;;;;;;2125607;27;19924;-74
2021/01/06 05:27:17;;;;;;;;;;;8.90;65.00;;;;;;2125258;27;19923;-74
2021/01/06 05:28:23;;;;;;;;;;;8.80;67.20;;;;;;2125163;27;20287;-73
2021/01/06 05:29:27;;;;;;;;;;;8.90;65.60;;;;;;2124675;27;19924;-74
2021/01/06 05:30:30;;;;;;;;;;;8.70;65.90;;;;;;2124523;27;19923;-73
2021/01/06 05:31:32;;;;;;;;;;;8.60;65.80;;;;;;2123858;27;19924;-72
2021/01/06 05:32:35;;;;;;;;;;;8.60;66.40;;;;;;2124031;27;19924;-73
2021/01/06 05:33:38;;;;;;;;;;;8.50;66.30;;;;;;2123913;27;19946;-73
2021/01/06 05:34:40;;;;;;;;;;;8.50;65.80;;;;;;2115743;28;19930;-74
2021/01/06 05:35:43;;;;;;;;;;;8.40;68.00;;;;;;2123883;27;19957;-73
2021/01/06 05:36:45;;;;;;;;;;;8.40;67.30;;;;;;2124492;27;20296;-73
2021/01/06 05:37:48;;;;;;;;;;;8.50;67.60;;;;;;2123729;27;20284;-74
2021/01/06 05:38:50;;;;;;;;;;;8.50;66.10;;;;;;2123687;27;20085;-74
2021/01/06 05:39:53;;;;;;;;;;;8.50;67.10;;;;;;2124295;27;20264;-74
2021/01/06 05:40:55;;;;;;;;;;;8.50;66.50;;;;;;2123516;27;19923;-73
2021/01/06 05:42:04;;;;;;;;;;;8.60;68.40;;;;;;2123664;27;19923;-73
2021/01/06 05:43:07;;;;;;;;;;;8.60;66.50;;;;;;2124257;27;19923;-73
2021/01/06 05:44:10;;;;;;;;;;;8.80;67.70;;;;;;2124274;27;19924;-73
2021/01/06 05:45:11;;;;;;;;;;;8.90;65.80;;;;;;2124205;27;19931;-73
2021/01/06 05:46:19;;;;;;;;;;;8.90;65.90;;;;;;2124282;27;19931;-73
2021/01/06 05:47:23;;;;;;;;;;;8.90;64.80;;;;;;2124009;27;19924;-73
2021/01/06 05:48:30;;;;;;;;;;;8.80;66.10;;;;;;2124080;27;19930;-73
2021/01/06 05:49:32;;;;;;;;;;;8.90;65.90;;;;;;2124144;27;19931;-73
2021/01/06 05:50:34;;;;;;;;;;;8.90;66.30;;;;;;2124169;27;19931;-73
2021/01/06 05:51:37;;;;;;;;;;;9.00;66.80;;;;;;2124273;27;19969;-74
2021/01/06 05:52:39;;;;;;;;;;;9.00;66.20;;;;;;2124200;27;19923;-74
2021/01/06 05:53:43;;;;;;;;;;;9.10;65.30;;;;;;2124090;27;20047;-74
2021/01/06 05:54:46;;;;;;;;;;;9.10;66.70;;;;;;2123851;27;19923;-74
2021/01/06 05:55:50;;;;;;;;;;;9.20;65.00;;;;;;2124459;27;19934;-74
2021/01/06 05:57:04;;;;;;;;;;;9.10;64.10;;;;;;2124062;27;19923;-74
2021/01/06 05:58:09;;;;;;;;;;;9.10;64.40;;;;;;2124364;27;19931;-74
2021/01/06 05:59:19;;;;;;;;;;;9.10;64.80;;;;;;2124300;27;19923;-73
2021/01/06 06:00:30;;;;;;;;;;;8.90;64.20;;;;;;2124474;27;19923;-74
2021/01/06 06:01:37;;;;;;;;;;;8.90;66.50;;;;;;2124585;27;19927;-73
2021/01/06 06:02:41;;;;;;;;;;;8.80;65.00;;;;;;2124157;27;20260;-73
2021/01/06 06:03:47;;;;;;;;;;;8.80;65.80;;;;;;2124534;27;20291;-74
2021/01/06 06:05:00;;;;;;;;;;;8.80;64.70;;;;;;2124156;27;19959;-74
2021/01/06 06:06:04;;;;;;;;;;;8.80;66.30;;;;;;2124158;27;19927;-74
2021/01/06 06:07:14;;;;;;;;;;;8.90;65.00;;;;;;2124318;27;19930;-74
2021/01/06 06:08:19;;;;;;;;;;;8.90;65.60;;;;;;2115707;28;20380;-73
2021/01/06 06:09:39;;;;;;;;;;;9.10;67.30;;;;;;2115697;28;19935;-74
2021/01/06 06:10:53;;;;;;;;;;;9.30;66.40;;;;;;2115127;28;20425;-74
2021/01/06 06:12:03;;;;;;;;;;;9.10;64.00;;;;;;2115433;28;19935;-74
2021/01/06 06:13:19;;;;;;;;;;;9.20;65.50;;;;;;2115472;28;19970;-73
2021/01/06 06:14:37;;;;;;;;;;;9.40;64.90;;;;;;2112421;28;19930;-73
2021/01/06 06:15:47;;;;;;;;;;;9.30;63.50;;;;;;2116690;27;19924;-73